<?xml version='1.0' encoding='UTF-8'?>
<gpx version="1.1" creator="https://www.komoot.de" xmlns="http://www.topografix.com/GPX/1/1" xmlns:xsi="http://www.w3.org/2001/XMLSchema-instance" xsi:schemaLocation="http://www.topografix.com/GPX/1/1 http://www.topografix.com/GPX/1/1/gpx.xsd">
  <metadata>
    <name>De Neuilly à Meudon</name>
    <author>
      <link href="https://www.komoot.de">
        <text>komoot</text>
        <type>text/html</type>
      </link>
    </author>
  </metadata>
  <trk>
    <name>De Neuilly à Meudon</name>
    <trkseg>
      <trkpt lat="48.884784" lon="2.269284">
        <ele>41.863709</ele>
        <time>2023-10-10T21:13:26.929Z</time>
      </trkpt>
      <trkpt lat="48.884583" lon="2.269124">
        <ele>41.863709</ele>
        <time>2023-10-10T21:13:31.685Z</time>
      </trkpt>
      <trkpt lat="48.884439" lon="2.269026">
        <ele>41.863709</ele>
        <time>2023-10-10T21:13:34.907Z</time>
      </trkpt>
      <trkpt lat="48.884462" lon="2.268923">
        <ele>41.863709</ele>
        <time>2023-10-10T21:13:36.475Z</time>
      </trkpt>
      <trkpt lat="48.884560" lon="2.268487">
        <ele>41.863709</ele>
        <time>2023-10-10T21:13:42.324Z</time>
      </trkpt>
      <trkpt lat="48.884586" lon="2.268373">
        <ele>41.863709</ele>
        <time>2023-10-10T21:13:43.921Z</time>
      </trkpt>
      <trkpt lat="48.884663" lon="2.268043">
        <ele>41.868416</ele>
        <time>2023-10-10T21:13:48.026Z</time>
      </trkpt>
      <trkpt lat="48.884795" lon="2.267467">
        <ele>41.879561</ele>
        <time>2023-10-10T21:13:55.384Z</time>
      </trkpt>
      <trkpt lat="48.884866" lon="2.267418">
        <ele>41.881727</ele>
        <time>2023-10-10T21:13:56.867Z</time>
      </trkpt>
      <trkpt lat="48.885647" lon="2.264041">
        <ele>40.996038</ele>
        <time>2023-10-10T21:14:27.842Z</time>
      </trkpt>
      <trkpt lat="48.885604" lon="2.263934">
        <ele>40.933181</ele>
        <time>2023-10-10T21:14:28.735Z</time>
      </trkpt>
      <trkpt lat="48.885635" lon="2.263809">
        <ele>40.866217</ele>
        <time>2023-10-10T21:14:29.817Z</time>
      </trkpt>
      <trkpt lat="48.885665" lon="2.263684">
        <ele>40.799518</ele>
        <time>2023-10-10T21:14:30.839Z</time>
      </trkpt>
      <trkpt lat="48.885729" lon="2.263679">
        <ele>40.750668</ele>
        <time>2023-10-10T21:14:31.591Z</time>
      </trkpt>
      <trkpt lat="48.885795" lon="2.263389">
        <ele>40.596846</ele>
        <time>2023-10-10T21:14:33.923Z</time>
      </trkpt>
      <trkpt lat="48.885951" lon="2.262734">
        <ele>40.476895</ele>
        <time>2023-10-10T21:14:39.520Z</time>
      </trkpt>
      <trkpt lat="48.885924" lon="2.262633">
        <ele>40.464720</ele>
        <time>2023-10-10T21:14:40.467Z</time>
      </trkpt>
      <trkpt lat="48.886180" lon="2.262095">
        <ele>40.390556</ele>
        <time>2023-10-10T21:14:46.223Z</time>
      </trkpt>
      <trkpt lat="48.886348" lon="2.261853">
        <ele>40.351256</ele>
        <time>2023-10-10T21:14:49.998Z</time>
      </trkpt>
      <trkpt lat="48.886381" lon="2.261735">
        <ele>40.336936</ele>
        <time>2023-10-10T21:14:51.354Z</time>
      </trkpt>
      <trkpt lat="48.886281" lon="2.261709">
        <ele>40.319706</ele>
        <time>2023-10-10T21:14:52.807Z</time>
      </trkpt>
      <trkpt lat="48.886199" lon="2.261603">
        <ele>40.301428</ele>
        <time>2023-10-10T21:14:54.557Z</time>
      </trkpt>
      <trkpt lat="48.886167" lon="2.261485">
        <ele>40.287173</ele>
        <time>2023-10-10T21:14:55.921Z</time>
      </trkpt>
      <trkpt lat="48.886103" lon="2.261542">
        <ele>40.274577</ele>
        <time>2023-10-10T21:14:57.060Z</time>
      </trkpt>
      <trkpt lat="48.886167" lon="2.261485">
        <ele>40.261980</ele>
        <time>2023-10-10T21:14:58.131Z</time>
      </trkpt>
      <trkpt lat="48.886167" lon="2.261414">
        <ele>40.254051</ele>
        <time>2023-10-10T21:14:58.936Z</time>
      </trkpt>
      <trkpt lat="48.886201" lon="2.261343">
        <ele>40.244242</ele>
        <time>2023-10-10T21:14:59.961Z</time>
      </trkpt>
      <trkpt lat="48.886247" lon="2.261313">
        <ele>40.247310</ele>
        <time>2023-10-10T21:15:00.885Z</time>
      </trkpt>
      <trkpt lat="48.885937" lon="2.261143">
        <ele>40.655687</ele>
        <time>2023-10-10T21:15:06.801Z</time>
      </trkpt>
      <trkpt lat="48.885580" lon="2.260958">
        <ele>41.123074</ele>
        <time>2023-10-10T21:15:14.488Z</time>
      </trkpt>
      <trkpt lat="48.885436" lon="2.260881">
        <ele>41.312235</ele>
        <time>2023-10-10T21:15:17.972Z</time>
      </trkpt>
      <trkpt lat="48.885050" lon="2.260673">
        <ele>41.819722</ele>
        <time>2023-10-10T21:15:27.015Z</time>
      </trkpt>
      <trkpt lat="48.884959" lon="2.260633">
        <ele>41.937109</ele>
        <time>2023-10-10T21:15:29.126Z</time>
      </trkpt>
      <trkpt lat="48.884944" lon="2.260441">
        <ele>42.094668</ele>
        <time>2023-10-10T21:15:31.908Z</time>
      </trkpt>
      <trkpt lat="48.884868" lon="2.260282">
        <ele>42.254850</ele>
        <time>2023-10-10T21:15:35.209Z</time>
      </trkpt>
      <trkpt lat="48.884746" lon="2.260215">
        <ele>42.415593</ele>
        <time>2023-10-10T21:15:38.542Z</time>
      </trkpt>
      <trkpt lat="48.884621" lon="2.260264">
        <ele>42.488044</ele>
        <time>2023-10-10T21:15:41.691Z</time>
      </trkpt>
      <trkpt lat="48.884539" lon="2.260417">
        <ele>42.520307</ele>
        <time>2023-10-10T21:15:44.535Z</time>
      </trkpt>
      <trkpt lat="48.884434" lon="2.260368">
        <ele>42.547609</ele>
        <time>2023-10-10T21:15:46.466Z</time>
      </trkpt>
      <trkpt lat="48.883753" lon="2.260045">
        <ele>42.724934</ele>
        <time>2023-10-10T21:15:57.288Z</time>
      </trkpt>
      <trkpt lat="48.883262" lon="2.259812">
        <ele>42.852791</ele>
        <time>2023-10-10T21:16:04.595Z</time>
      </trkpt>
      <trkpt lat="48.883001" lon="2.259688">
        <ele>42.893768</ele>
        <time>2023-10-10T21:16:08.885Z</time>
      </trkpt>
      <trkpt lat="48.882898" lon="2.259639">
        <ele>42.824989</ele>
        <time>2023-10-10T21:16:10.452Z</time>
      </trkpt>
      <trkpt lat="48.882179" lon="2.259298">
        <ele>42.345002</ele>
        <time>2023-10-10T21:16:20.828Z</time>
      </trkpt>
      <trkpt lat="48.881527" lon="2.258989">
        <ele>41.909771</ele>
        <time>2023-10-10T21:16:28.926Z</time>
      </trkpt>
      <trkpt lat="48.881478" lon="2.258965">
        <ele>41.876963</ele>
        <time>2023-10-10T21:16:29.604Z</time>
      </trkpt>
      <trkpt lat="48.881450" lon="2.258952">
        <ele>41.858305</ele>
        <time>2023-10-10T21:16:29.993Z</time>
      </trkpt>
      <trkpt lat="48.881049" lon="2.258653">
        <ele>41.526551</ele>
        <time>2023-10-10T21:16:35.709Z</time>
      </trkpt>
      <trkpt lat="48.880486" lon="2.258389">
        <ele>41.059507</ele>
        <time>2023-10-10T21:16:43.113Z</time>
      </trkpt>
      <trkpt lat="48.880417" lon="2.258356">
        <ele>41.002167</ele>
        <time>2023-10-10T21:16:44.001Z</time>
      </trkpt>
      <trkpt lat="48.880316" lon="2.258298">
        <ele>40.916583</ele>
        <time>2023-10-10T21:16:45.317Z</time>
      </trkpt>
      <trkpt lat="48.880189" lon="2.258231">
        <ele>40.810019</ele>
        <time>2023-10-10T21:16:46.930Z</time>
      </trkpt>
      <trkpt lat="48.879928" lon="2.258141">
        <ele>40.597864</ele>
        <time>2023-10-10T21:16:50.103Z</time>
      </trkpt>
      <trkpt lat="48.877318" lon="2.256790">
        <ele>39.393598</ele>
        <time>2023-10-10T21:17:27.495Z</time>
      </trkpt>
      <trkpt lat="48.876979" lon="2.256619">
        <ele>39.299408</ele>
        <time>2023-10-10T21:17:32.849Z</time>
      </trkpt>
      <trkpt lat="48.876826" lon="2.256493">
        <ele>39.253521</ele>
        <time>2023-10-10T21:17:35.223Z</time>
      </trkpt>
      <trkpt lat="48.876760" lon="2.256469">
        <ele>39.235625</ele>
        <time>2023-10-10T21:17:36.182Z</time>
      </trkpt>
      <trkpt lat="48.876038" lon="2.256146">
        <ele>38.997819</ele>
        <time>2023-10-10T21:17:46.594Z</time>
      </trkpt>
      <trkpt lat="48.875779" lon="2.256018">
        <ele>38.868872</ele>
        <time>2023-10-10T21:17:50.151Z</time>
      </trkpt>
      <trkpt lat="48.875668" lon="2.255964">
        <ele>38.813691</ele>
        <time>2023-10-10T21:17:51.685Z</time>
      </trkpt>
      <trkpt lat="48.875600" lon="2.255929">
        <ele>38.779699</ele>
        <time>2023-10-10T21:17:52.672Z</time>
      </trkpt>
      <trkpt lat="48.874449" lon="2.255328">
        <ele>38.211236</ele>
        <time>2023-10-10T21:18:09.016Z</time>
      </trkpt>
      <trkpt lat="48.874340" lon="2.255216">
        <ele>38.164282</ele>
        <time>2023-10-10T21:18:10.667Z</time>
      </trkpt>
      <trkpt lat="48.874251" lon="2.255124">
        <ele>38.125872</ele>
        <time>2023-10-10T21:18:12.035Z</time>
      </trkpt>
      <trkpt lat="48.874214" lon="2.255027">
        <ele>38.099550</ele>
        <time>2023-10-10T21:18:12.970Z</time>
      </trkpt>
      <trkpt lat="48.874093" lon="2.254966">
        <ele>38.054053</ele>
        <time>2023-10-10T21:18:14.527Z</time>
      </trkpt>
      <trkpt lat="48.874012" lon="2.255030">
        <ele>38.021473</ele>
        <time>2023-10-10T21:18:15.640Z</time>
      </trkpt>
      <trkpt lat="48.873891" lon="2.254972">
        <ele>37.976192</ele>
        <time>2023-10-10T21:18:17.236Z</time>
      </trkpt>
      <trkpt lat="48.873839" lon="2.254946">
        <ele>37.956655</ele>
        <time>2023-10-10T21:18:17.924Z</time>
      </trkpt>
      <trkpt lat="48.873746" lon="2.254901">
        <ele>37.921823</ele>
        <time>2023-10-10T21:18:19.132Z</time>
      </trkpt>
      <trkpt lat="48.873678" lon="2.254869">
        <ele>37.896418</ele>
        <time>2023-10-10T21:18:19.998Z</time>
      </trkpt>
      <trkpt lat="48.871983" lon="2.253751">
        <ele>38.290722</ele>
        <time>2023-10-10T21:18:48.029Z</time>
      </trkpt>
      <trkpt lat="48.871918" lon="2.253709">
        <ele>38.340116</ele>
        <time>2023-10-10T21:18:49.509Z</time>
      </trkpt>
      <trkpt lat="48.870989" lon="2.253094">
        <ele>39.291031</ele>
        <time>2023-10-10T21:19:10.056Z</time>
      </trkpt>
      <trkpt lat="48.869884" lon="2.252372">
        <ele>41.162482</ele>
        <time>2023-10-10T21:19:36.260Z</time>
      </trkpt>
      <trkpt lat="48.869147" lon="2.251878">
        <ele>42.336858</ele>
        <time>2023-10-10T21:19:52.524Z</time>
      </trkpt>
      <trkpt lat="48.867873" lon="2.251037">
        <ele>44.263611</ele>
        <time>2023-10-10T21:20:21.022Z</time>
      </trkpt>
      <trkpt lat="48.867786" lon="2.250982">
        <ele>44.381655</ele>
        <time>2023-10-10T21:20:22.915Z</time>
      </trkpt>
      <trkpt lat="48.867665" lon="2.250889">
        <ele>44.551519</ele>
        <time>2023-10-10T21:20:25.680Z</time>
      </trkpt>
      <trkpt lat="48.867409" lon="2.250723">
        <ele>44.900197</ele>
        <time>2023-10-10T21:20:31.200Z</time>
      </trkpt>
      <trkpt lat="48.867330" lon="2.250672">
        <ele>45.007724</ele>
        <time>2023-10-10T21:20:32.946Z</time>
      </trkpt>
      <trkpt lat="48.865217" lon="2.249266">
        <ele>47.505059</ele>
        <time>2023-10-10T21:21:17.989Z</time>
      </trkpt>
      <trkpt lat="48.865124" lon="2.249200">
        <ele>47.599646</ele>
        <time>2023-10-10T21:21:19.870Z</time>
      </trkpt>
      <trkpt lat="48.864881" lon="2.249055">
        <ele>47.840225</ele>
        <time>2023-10-10T21:21:24.358Z</time>
      </trkpt>
      <trkpt lat="48.864789" lon="2.248995">
        <ele>47.932484</ele>
        <time>2023-10-10T21:21:26.127Z</time>
      </trkpt>
      <trkpt lat="48.863449" lon="2.248112">
        <ele>48.190015</ele>
        <time>2023-10-10T21:21:49.231Z</time>
      </trkpt>
      <trkpt lat="48.863380" lon="2.248067">
        <ele>48.196833</ele>
        <time>2023-10-10T21:21:50.266Z</time>
      </trkpt>
      <trkpt lat="48.861817" lon="2.247029">
        <ele>47.735698</ele>
        <time>2023-10-10T21:22:12.791Z</time>
      </trkpt>
      <trkpt lat="48.860652" lon="2.246257">
        <ele>47.947714</ele>
        <time>2023-10-10T21:22:31.036Z</time>
      </trkpt>
      <trkpt lat="48.860370" lon="2.246070">
        <ele>48.111683</ele>
        <time>2023-10-10T21:22:36.334Z</time>
      </trkpt>
      <trkpt lat="48.858657" lon="2.244934">
        <ele>49.478924</ele>
        <time>2023-10-10T21:23:13.206Z</time>
      </trkpt>
      <trkpt lat="48.858637" lon="2.244924">
        <ele>49.496985</ele>
        <time>2023-10-10T21:23:13.608Z</time>
      </trkpt>
      <trkpt lat="48.858567" lon="2.244874">
        <ele>49.563335</ele>
        <time>2023-10-10T21:23:15.089Z</time>
      </trkpt>
      <trkpt lat="48.858497" lon="2.244828">
        <ele>49.628757</ele>
        <time>2023-10-10T21:23:16.548Z</time>
      </trkpt>
      <trkpt lat="48.858474" lon="2.244813">
        <ele>49.650227</ele>
        <time>2023-10-10T21:23:17.038Z</time>
      </trkpt>
      <trkpt lat="48.856637" lon="2.243594">
        <ele>49.973803</ele>
        <time>2023-10-10T21:23:46.748Z</time>
      </trkpt>
      <trkpt lat="48.855955" lon="2.243141">
        <ele>49.856134</ele>
        <time>2023-10-10T21:23:56.828Z</time>
      </trkpt>
      <trkpt lat="48.854832" lon="2.242397">
        <ele>49.591434</ele>
        <time>2023-10-10T21:24:14.171Z</time>
      </trkpt>
      <trkpt lat="48.853961" lon="2.241826">
        <ele>48.886699</ele>
        <time>2023-10-10T21:24:27.594Z</time>
      </trkpt>
      <trkpt lat="48.853504" lon="2.241530">
        <ele>48.493524</ele>
        <time>2023-10-10T21:24:33.960Z</time>
      </trkpt>
      <trkpt lat="48.850209" lon="2.241918">
        <ele>42.454031</ele>
        <time>2023-10-10T21:25:10.243Z</time>
      </trkpt>
      <trkpt lat="48.848948" lon="2.242068">
        <ele>40.442734</ele>
        <time>2023-10-10T21:25:24.008Z</time>
      </trkpt>
      <trkpt lat="48.848683" lon="2.242100">
        <ele>40.180943</ele>
        <time>2023-10-10T21:25:27.098Z</time>
      </trkpt>
      <trkpt lat="48.848486" lon="2.242075">
        <ele>39.986265</ele>
        <time>2023-10-10T21:25:29.477Z</time>
      </trkpt>
      <trkpt lat="48.848381" lon="2.242060">
        <ele>39.882406</ele>
        <time>2023-10-10T21:25:30.809Z</time>
      </trkpt>
      <trkpt lat="48.848297" lon="2.241907">
        <ele>39.753279</ele>
        <time>2023-10-10T21:25:32.473Z</time>
      </trkpt>
      <trkpt lat="48.848159" lon="2.241747">
        <ele>39.582341</ele>
        <time>2023-10-10T21:25:34.858Z</time>
      </trkpt>
      <trkpt lat="48.848001" lon="2.241751">
        <ele>39.426723</ele>
        <time>2023-10-10T21:25:37.160Z</time>
      </trkpt>
      <trkpt lat="48.847889" lon="2.241488">
        <ele>39.223711</ele>
        <time>2023-10-10T21:25:40.440Z</time>
      </trkpt>
      <trkpt lat="48.847808" lon="2.241318">
        <ele>39.292531</ele>
        <time>2023-10-10T21:25:42.705Z</time>
      </trkpt>
      <trkpt lat="48.847671" lon="2.241189">
        <ele>39.417204</ele>
        <time>2023-10-10T21:25:45.484Z</time>
      </trkpt>
      <trkpt lat="48.847065" lon="2.239825">
        <ele>40.254986</ele>
        <time>2023-10-10T21:26:05.630Z</time>
      </trkpt>
      <trkpt lat="48.847005" lon="2.239691">
        <ele>40.337492</ele>
        <time>2023-10-10T21:26:07.655Z</time>
      </trkpt>
      <trkpt lat="48.846615" lon="2.238702">
        <ele>40.800913</ele>
        <time>2023-10-10T21:26:21.694Z</time>
      </trkpt>
      <trkpt lat="48.846584" lon="2.238626">
        <ele>40.829428</ele>
        <time>2023-10-10T21:26:22.747Z</time>
      </trkpt>
      <trkpt lat="48.846544" lon="2.238530">
        <ele>40.865663</ele>
        <time>2023-10-10T21:26:24.112Z</time>
      </trkpt>
      <trkpt lat="48.846482" lon="2.238397">
        <ele>40.917641</ele>
        <time>2023-10-10T21:26:26.057Z</time>
      </trkpt>
      <trkpt lat="48.846107" lon="2.237576">
        <ele>41.236350</ele>
        <time>2023-10-10T21:26:37.385Z</time>
      </trkpt>
      <trkpt lat="48.845931" lon="2.237162">
        <ele>41.393530</ele>
        <time>2023-10-10T21:26:42.362Z</time>
      </trkpt>
      <trkpt lat="48.845873" lon="2.237023">
        <ele>41.446018</ele>
        <time>2023-10-10T21:26:44.000Z</time>
      </trkpt>
      <trkpt lat="48.845812" lon="2.236873">
        <ele>41.379618</ele>
        <time>2023-10-10T21:26:45.589Z</time>
      </trkpt>
      <trkpt lat="48.845640" lon="2.236468">
        <ele>41.021772</ele>
        <time>2023-10-10T21:26:49.974Z</time>
      </trkpt>
      <trkpt lat="48.845500" lon="2.236141">
        <ele>40.732154</ele>
        <time>2023-10-10T21:26:53.266Z</time>
      </trkpt>
      <trkpt lat="48.845029" lon="2.235095">
        <ele>39.791214</ele>
        <time>2023-10-10T21:27:02.868Z</time>
      </trkpt>
      <trkpt lat="48.844735" lon="2.234433">
        <ele>39.152083</ele>
        <time>2023-10-10T21:27:08.732Z</time>
      </trkpt>
      <trkpt lat="48.844694" lon="2.234347">
        <ele>39.057936</ele>
        <time>2023-10-10T21:27:09.493Z</time>
      </trkpt>
      <trkpt lat="48.844672" lon="2.234302">
        <ele>39.008237</ele>
        <time>2023-10-10T21:27:09.891Z</time>
      </trkpt>
      <trkpt lat="48.844636" lon="2.234224">
        <ele>38.923775</ele>
        <time>2023-10-10T21:27:10.562Z</time>
      </trkpt>
      <trkpt lat="48.844613" lon="2.234176">
        <ele>38.871136</ele>
        <time>2023-10-10T21:27:10.994Z</time>
      </trkpt>
      <trkpt lat="48.844450" lon="2.233830">
        <ele>38.493894</ele>
        <time>2023-10-10T21:27:14.037Z</time>
      </trkpt>
      <trkpt lat="48.844413" lon="2.233758">
        <ele>38.412906</ele>
        <time>2023-10-10T21:27:14.696Z</time>
      </trkpt>
      <trkpt lat="48.844338" lon="2.233603">
        <ele>38.242344</ele>
        <time>2023-10-10T21:27:16.135Z</time>
      </trkpt>
      <trkpt lat="48.844141" lon="2.233184">
        <ele>37.785814</ele>
        <time>2023-10-10T21:27:20.061Z</time>
      </trkpt>
      <trkpt lat="48.844022" lon="2.232929">
        <ele>37.508671</ele>
        <time>2023-10-10T21:27:22.586Z</time>
      </trkpt>
      <trkpt lat="48.843928" lon="2.232749">
        <ele>37.304951</ele>
        <time>2023-10-10T21:27:24.704Z</time>
      </trkpt>
      <trkpt lat="48.843689" lon="2.232401">
        <ele>36.971377</ele>
        <time>2023-10-10T21:27:29.226Z</time>
      </trkpt>
      <trkpt lat="48.843452" lon="2.232083">
        <ele>36.855622</ele>
        <time>2023-10-10T21:27:33.717Z</time>
      </trkpt>
      <trkpt lat="48.843409" lon="2.232026">
        <ele>36.834730</ele>
        <time>2023-10-10T21:27:34.639Z</time>
      </trkpt>
      <trkpt lat="48.843189" lon="2.231730">
        <ele>36.727149</ele>
        <time>2023-10-10T21:27:38.902Z</time>
      </trkpt>
      <trkpt lat="48.842798" lon="2.231199">
        <ele>36.535157</ele>
        <time>2023-10-10T21:27:46.468Z</time>
      </trkpt>
      <trkpt lat="48.842532" lon="2.230825">
        <ele>36.402475</ele>
        <time>2023-10-10T21:27:51.080Z</time>
      </trkpt>
      <trkpt lat="48.842400" lon="2.230665">
        <ele>36.336694</ele>
        <time>2023-10-10T21:27:53.056Z</time>
      </trkpt>
      <trkpt lat="48.842337" lon="2.230583">
        <ele>36.297821</ele>
        <time>2023-10-10T21:27:54.082Z</time>
      </trkpt>
      <trkpt lat="48.841912" lon="2.230007">
        <ele>36.030950</ele>
        <time>2023-10-10T21:28:01.461Z</time>
      </trkpt>
      <trkpt lat="48.841567" lon="2.229536">
        <ele>35.813608</ele>
        <time>2023-10-10T21:28:07.345Z</time>
      </trkpt>
      <trkpt lat="48.841429" lon="2.229351">
        <ele>35.727368</ele>
        <time>2023-10-10T21:28:09.705Z</time>
      </trkpt>
      <trkpt lat="48.841340" lon="2.229227">
        <ele>35.670783</ele>
        <time>2023-10-10T21:28:11.319Z</time>
      </trkpt>
      <trkpt lat="48.841209" lon="2.228974">
        <ele>35.571501</ele>
        <time>2023-10-10T21:28:14.388Z</time>
      </trkpt>
      <trkpt lat="48.841122" lon="2.228863">
        <ele>35.518266</ele>
        <time>2023-10-10T21:28:16.083Z</time>
      </trkpt>
      <trkpt lat="48.840966" lon="2.228654">
        <ele>35.670629</ele>
        <time>2023-10-10T21:28:19.620Z</time>
      </trkpt>
      <trkpt lat="48.840983" lon="2.228494">
        <ele>35.757648</ele>
        <time>2023-10-10T21:28:21.288Z</time>
      </trkpt>
      <trkpt lat="48.840956" lon="2.228353">
        <ele>35.836493</ele>
        <time>2023-10-10T21:28:22.914Z</time>
      </trkpt>
      <trkpt lat="48.840896" lon="2.228239">
        <ele>35.914867</ele>
        <time>2023-10-10T21:28:24.736Z</time>
      </trkpt>
      <trkpt lat="48.840827" lon="2.228175">
        <ele>35.980817</ele>
        <time>2023-10-10T21:28:26.192Z</time>
      </trkpt>
      <trkpt lat="48.840723" lon="2.228150">
        <ele>36.066715</ele>
        <time>2023-10-10T21:28:28.035Z</time>
      </trkpt>
      <trkpt lat="48.840619" lon="2.228201">
        <ele>36.155868</ele>
        <time>2023-10-10T21:28:30.163Z</time>
      </trkpt>
      <trkpt lat="48.840556" lon="2.228278">
        <ele>36.221828</ele>
        <time>2023-10-10T21:28:31.864Z</time>
      </trkpt>
      <trkpt lat="48.840514" lon="2.228382">
        <ele>36.287342</ele>
        <time>2023-10-10T21:28:33.424Z</time>
      </trkpt>
      <trkpt lat="48.840504" lon="2.228624">
        <ele>36.417533</ele>
        <time>2023-10-10T21:28:36.662Z</time>
      </trkpt>
      <trkpt lat="48.840361" lon="2.228595">
        <ele>36.535227</ele>
        <time>2023-10-10T21:28:40.022Z</time>
      </trkpt>
      <trkpt lat="48.839919" lon="2.228510">
        <ele>36.898687</ele>
        <time>2023-10-10T21:28:49.835Z</time>
      </trkpt>
      <trkpt lat="48.837749" lon="2.228044">
        <ele>36.499265</ele>
        <time>2023-10-10T21:29:19.652Z</time>
      </trkpt>
      <trkpt lat="48.837281" lon="2.227947">
        <ele>36.274767</ele>
        <time>2023-10-10T21:29:25.357Z</time>
      </trkpt>
      <trkpt lat="48.837111" lon="2.227945">
        <ele>36.193964</ele>
        <time>2023-10-10T21:29:27.546Z</time>
      </trkpt>
      <trkpt lat="48.836384" lon="2.227936">
        <ele>35.848414</ele>
        <time>2023-10-10T21:29:37.657Z</time>
      </trkpt>
      <trkpt lat="48.836148" lon="2.227933">
        <ele>35.797651</ele>
        <time>2023-10-10T21:29:40.923Z</time>
      </trkpt>
      <trkpt lat="48.835736" lon="2.227924">
        <ele>35.852686</ele>
        <time>2023-10-10T21:29:46.787Z</time>
      </trkpt>
      <trkpt lat="48.835586" lon="2.227916">
        <ele>35.872733</ele>
        <time>2023-10-10T21:29:49.222Z</time>
      </trkpt>
      <trkpt lat="48.835073" lon="2.228036">
        <ele>35.942060</ele>
        <time>2023-10-10T21:29:57.521Z</time>
      </trkpt>
      <trkpt lat="48.834647" lon="2.226079">
        <ele>35.617433</ele>
        <time>2023-10-10T21:30:19.195Z</time>
      </trkpt>
      <trkpt lat="48.834615" lon="2.225973">
        <ele>35.575226</ele>
        <time>2023-10-10T21:30:20.056Z</time>
      </trkpt>
      <trkpt lat="48.834526" lon="2.226048">
        <ele>35.519265</ele>
        <time>2023-10-10T21:30:21.606Z</time>
      </trkpt>
      <trkpt lat="48.833304" lon="2.227087">
        <ele>34.535786</ele>
        <time>2023-10-10T21:30:38.274Z</time>
      </trkpt>
      <trkpt lat="48.833210" lon="2.227136">
        <ele>34.440375</ele>
        <time>2023-10-10T21:30:39.474Z</time>
      </trkpt>
      <trkpt lat="48.832899" lon="2.227301">
        <ele>34.124112</ele>
        <time>2023-10-10T21:30:43.418Z</time>
      </trkpt>
      <trkpt lat="48.832487" lon="2.227445">
        <ele>33.718233</ele>
        <time>2023-10-10T21:30:48.687Z</time>
      </trkpt>
      <trkpt lat="48.832453" lon="2.227454">
        <ele>33.685099</ele>
        <time>2023-10-10T21:30:49.111Z</time>
      </trkpt>
      <trkpt lat="48.832295" lon="2.227496">
        <ele>33.531104</ele>
        <time>2023-10-10T21:30:51.232Z</time>
      </trkpt>
      <trkpt lat="48.832068" lon="2.227556">
        <ele>33.309896</ele>
        <time>2023-10-10T21:30:54.309Z</time>
      </trkpt>
      <trkpt lat="48.832000" lon="2.227574">
        <ele>33.243878</ele>
        <time>2023-10-10T21:30:55.261Z</time>
      </trkpt>
      <trkpt lat="48.831679" lon="2.227655">
        <ele>32.932673</ele>
        <time>2023-10-10T21:30:59.413Z</time>
      </trkpt>
      <trkpt lat="48.830505" lon="2.227921">
        <ele>31.797460</ele>
        <time>2023-10-10T21:31:13.545Z</time>
      </trkpt>
      <trkpt lat="48.830379" lon="2.227952">
        <ele>31.675386</ele>
        <time>2023-10-10T21:31:15.134Z</time>
      </trkpt>
      <trkpt lat="48.830019" lon="2.228053">
        <ele>31.485302</ele>
        <time>2023-10-10T21:31:19.898Z</time>
      </trkpt>
      <trkpt lat="48.829660" lon="2.228177">
        <ele>31.347318</ele>
        <time>2023-10-10T21:31:24.565Z</time>
      </trkpt>
      <trkpt lat="48.829183" lon="2.228460">
        <ele>31.155392</ele>
        <time>2023-10-10T21:31:30.697Z</time>
      </trkpt>
      <trkpt lat="48.829170" lon="2.228470">
        <ele>31.149930</ele>
        <time>2023-10-10T21:31:30.878Z</time>
      </trkpt>
      <trkpt lat="48.829094" lon="2.228498">
        <ele>31.120620</ele>
        <time>2023-10-10T21:31:31.810Z</time>
      </trkpt>
      <trkpt lat="48.829012" lon="2.228474">
        <ele>31.089322</ele>
        <time>2023-10-10T21:31:32.757Z</time>
      </trkpt>
      <trkpt lat="48.828962" lon="2.228325">
        <ele>31.048059</ele>
        <time>2023-10-10T21:31:33.937Z</time>
      </trkpt>
      <trkpt lat="48.828074" lon="2.225458">
        <ele>34.540519</ele>
        <time>2023-10-10T21:32:19.904Z</time>
      </trkpt>
      <trkpt lat="48.828053" lon="2.225391">
        <ele>34.642973</ele>
        <time>2023-10-10T21:32:21.538Z</time>
      </trkpt>
      <trkpt lat="48.827962" lon="2.225077">
        <ele>35.447809</ele>
        <time>2023-10-10T21:32:30.348Z</time>
      </trkpt>
      <trkpt lat="48.827898" lon="2.224864">
        <ele>36.019974</ele>
        <time>2023-10-10T21:32:35.501Z</time>
      </trkpt>
      <trkpt lat="48.827569" lon="2.224124">
        <ele>38.202095</ele>
        <time>2023-10-10T21:32:54.278Z</time>
      </trkpt>
      <trkpt lat="48.827472" lon="2.223833">
        <ele>38.999185</ele>
        <time>2023-10-10T21:33:00.572Z</time>
      </trkpt>
      <trkpt lat="48.827374" lon="2.223419">
        <ele>40.074310</ele>
        <time>2023-10-10T21:33:09.045Z</time>
      </trkpt>
      <trkpt lat="48.827301" lon="2.222918">
        <ele>41.328259</ele>
        <time>2023-10-10T21:33:19.167Z</time>
      </trkpt>
      <trkpt lat="48.827239" lon="2.222581">
        <ele>41.748854</ele>
        <time>2023-10-10T21:33:25.232Z</time>
      </trkpt>
      <trkpt lat="48.827161" lon="2.222178">
        <ele>42.231546</ele>
        <time>2023-10-10T21:33:31.870Z</time>
      </trkpt>
      <trkpt lat="48.827082" lon="2.221774">
        <ele>42.715835</ele>
        <time>2023-10-10T21:33:37.867Z</time>
      </trkpt>
      <trkpt lat="48.826763" lon="2.220004">
        <ele>45.334810</ele>
        <time>2023-10-10T21:33:58.925Z</time>
      </trkpt>
      <trkpt lat="48.826620" lon="2.219329">
        <ele>47.441081</ele>
        <time>2023-10-10T21:34:12.379Z</time>
      </trkpt>
      <trkpt lat="48.826601" lon="2.219258">
        <ele>47.668737</ele>
        <time>2023-10-10T21:34:14.139Z</time>
      </trkpt>
      <trkpt lat="48.826586" lon="2.219205">
        <ele>47.840099</ele>
        <time>2023-10-10T21:34:15.475Z</time>
      </trkpt>
      <trkpt lat="48.826524" lon="2.219174">
        <ele>48.134606</ele>
        <time>2023-10-10T21:34:17.761Z</time>
      </trkpt>
      <trkpt lat="48.826467" lon="2.219202">
        <ele>48.404901</ele>
        <time>2023-10-10T21:34:19.798Z</time>
      </trkpt>
      <trkpt lat="48.826410" lon="2.219289">
        <ele>48.769491</ele>
        <time>2023-10-10T21:34:22.480Z</time>
      </trkpt>
      <trkpt lat="48.826293" lon="2.219374">
        <ele>49.354662</ele>
        <time>2023-10-10T21:34:27.321Z</time>
      </trkpt>
      <trkpt lat="48.826024" lon="2.219479">
        <ele>50.607811</ele>
        <time>2023-10-10T21:34:37.784Z</time>
      </trkpt>
      <trkpt lat="48.825873" lon="2.219517">
        <ele>51.298402</ele>
        <time>2023-10-10T21:34:44.002Z</time>
      </trkpt>
      <trkpt lat="48.825691" lon="2.219591">
        <ele>52.148488</ele>
        <time>2023-10-10T21:34:51.400Z</time>
      </trkpt>
      <trkpt lat="48.825454" lon="2.219735">
        <ele>53.811575</ele>
        <time>2023-10-10T21:35:02.157Z</time>
      </trkpt>
      <trkpt lat="48.825062" lon="2.219887">
        <ele>57.005503</ele>
        <time>2023-10-10T21:35:19.232Z</time>
      </trkpt>
      <trkpt lat="48.824581" lon="2.220060">
        <ele>60.907808</ele>
        <time>2023-10-10T21:35:42.771Z</time>
      </trkpt>
      <trkpt lat="48.823700" lon="2.220393">
        <ele>67.992489</ele>
        <time>2023-10-10T21:36:28.371Z</time>
      </trkpt>
      <trkpt lat="48.823511" lon="2.220536">
        <ele>69.549972</ele>
        <time>2023-10-10T21:36:38.651Z</time>
      </trkpt>
      <trkpt lat="48.823402" lon="2.220663">
        <ele>70.563283</ele>
        <time>2023-10-10T21:36:45.334Z</time>
      </trkpt>
      <trkpt lat="48.823290" lon="2.220848">
        <ele>71.783794</ele>
        <time>2023-10-10T21:36:53.185Z</time>
      </trkpt>
      <trkpt lat="48.823046" lon="2.221483">
        <ele>75.354354</ele>
        <time>2023-10-10T21:37:14.367Z</time>
      </trkpt>
      <trkpt lat="48.822953" lon="2.221976">
        <ele>77.844875</ele>
        <time>2023-10-10T21:37:28.622Z</time>
      </trkpt>
      <trkpt lat="48.822933" lon="2.222186">
        <ele>78.875326</ele>
        <time>2023-10-10T21:37:34.512Z</time>
      </trkpt>
      <trkpt lat="48.822903" lon="2.222506">
        <ele>80.273024</ele>
        <time>2023-10-10T21:37:43.105Z</time>
      </trkpt>
      <trkpt lat="48.822855" lon="2.222625">
        <ele>80.627224</ele>
        <time>2023-10-10T21:37:46.889Z</time>
      </trkpt>
      <trkpt lat="48.822820" lon="2.222677">
        <ele>80.815962</ele>
        <time>2023-10-10T21:37:48.776Z</time>
      </trkpt>
      <trkpt lat="48.822813" lon="2.222765">
        <ele>81.040934</ele>
        <time>2023-10-10T21:37:50.946Z</time>
      </trkpt>
      <trkpt lat="48.822831" lon="2.222817">
        <ele>81.190041</ele>
        <time>2023-10-10T21:37:52.361Z</time>
      </trkpt>
      <trkpt lat="48.822873" lon="2.222856">
        <ele>81.379807</ele>
        <time>2023-10-10T21:37:53.973Z</time>
      </trkpt>
      <trkpt lat="48.822960" lon="2.222949">
        <ele>81.789919</ele>
        <time>2023-10-10T21:37:57.551Z</time>
      </trkpt>
      <trkpt lat="48.823032" lon="2.223048">
        <ele>82.164312</ele>
        <time>2023-10-10T21:38:00.773Z</time>
      </trkpt>
      <trkpt lat="48.823090" lon="2.223128">
        <ele>82.466332</ele>
        <time>2023-10-10T21:38:03.292Z</time>
      </trkpt>
      <trkpt lat="48.823253" lon="2.223628">
        <ele>83.882386</ele>
        <time>2023-10-10T21:38:14.284Z</time>
      </trkpt>
      <trkpt lat="48.823294" lon="2.223923">
        <ele>84.647600</ele>
        <time>2023-10-10T21:38:19.558Z</time>
      </trkpt>
      <trkpt lat="48.823299" lon="2.224155">
        <ele>85.236734</ele>
        <time>2023-10-10T21:38:23.771Z</time>
      </trkpt>
      <trkpt lat="48.823233" lon="2.224522">
        <ele>86.202308</ele>
        <time>2023-10-10T21:38:30.027Z</time>
      </trkpt>
      <trkpt lat="48.823124" lon="2.224773">
        <ele>86.965445</ele>
        <time>2023-10-10T21:38:34.526Z</time>
      </trkpt>
      <trkpt lat="48.822922" lon="2.225069">
        <ele>87.479574</ele>
        <time>2023-10-10T21:38:40.746Z</time>
      </trkpt>
      <trkpt lat="48.822868" lon="2.225150">
        <ele>87.610702</ele>
        <time>2023-10-10T21:38:42.457Z</time>
      </trkpt>
      <trkpt lat="48.822811" lon="2.225240">
        <ele>87.752758</ele>
        <time>2023-10-10T21:38:44.359Z</time>
      </trkpt>
      <trkpt lat="48.822702" lon="2.225415">
        <ele>88.026792</ele>
        <time>2023-10-10T21:38:47.943Z</time>
      </trkpt>
      <trkpt lat="48.822524" lon="2.225651">
        <ele>88.435022</ele>
        <time>2023-10-10T21:38:53.269Z</time>
      </trkpt>
      <trkpt lat="48.822104" lon="2.226264">
        <ele>89.441415</ele>
        <time>2023-10-10T21:39:05.466Z</time>
      </trkpt>
      <trkpt lat="48.821476" lon="2.227175">
        <ele>90.964303</ele>
        <time>2023-10-10T21:39:22.971Z</time>
      </trkpt>
      <trkpt lat="48.821390" lon="2.227307">
        <ele>91.181370</ele>
        <time>2023-10-10T21:39:25.384Z</time>
      </trkpt>
      <trkpt lat="48.821155" lon="2.227649">
        <ele>91.759188</ele>
        <time>2023-10-10T21:39:32.296Z</time>
      </trkpt>
      <trkpt lat="48.821120" lon="2.227698">
        <ele>91.843696</ele>
        <time>2023-10-10T21:39:33.273Z</time>
      </trkpt>
      <trkpt lat="48.820836" lon="2.228108">
        <ele>92.539326</ele>
        <time>2023-10-10T21:39:42.078Z</time>
      </trkpt>
      <trkpt lat="48.820268" lon="2.228942">
        <ele>94.488359</ele>
        <time>2023-10-10T21:40:00.815Z</time>
      </trkpt>
      <trkpt lat="48.820239" lon="2.228986">
        <ele>94.624988</ele>
        <time>2023-10-10T21:40:01.844Z</time>
      </trkpt>
      <trkpt lat="48.820102" lon="2.229139">
        <ele>95.191786</ele>
        <time>2023-10-10T21:40:06.163Z</time>
      </trkpt>
      <trkpt lat="48.819390" lon="2.229333">
        <ele>97.602850</ele>
        <time>2023-10-10T21:40:26.369Z</time>
      </trkpt>
      <trkpt lat="48.819303" lon="2.229353">
        <ele>97.896133</ele>
        <time>2023-10-10T21:40:29.028Z</time>
      </trkpt>
      <trkpt lat="48.819208" lon="2.229376">
        <ele>98.216777</ele>
        <time>2023-10-10T21:40:31.983Z</time>
      </trkpt>
      <trkpt lat="48.818941" lon="2.229442">
        <ele>99.118428</ele>
        <time>2023-10-10T21:40:40.580Z</time>
      </trkpt>
      <trkpt lat="48.818855" lon="2.229459">
        <ele>99.456964</ele>
        <time>2023-10-10T21:40:43.512Z</time>
      </trkpt>
      <trkpt lat="48.818614" lon="2.229516">
        <ele>100.701133</ele>
        <time>2023-10-10T21:40:51.858Z</time>
      </trkpt>
      <trkpt lat="48.818260" lon="2.229600">
        <ele>102.528811</ele>
        <time>2023-10-10T21:41:04.917Z</time>
      </trkpt>
      <trkpt lat="48.818197" lon="2.229620">
        <ele>102.857122</ele>
        <time>2023-10-10T21:41:07.360Z</time>
      </trkpt>
      <trkpt lat="48.818036" lon="2.229792">
        <ele>103.861230</ele>
        <time>2023-10-10T21:41:14.346Z</time>
      </trkpt>
      <trkpt lat="48.817973" lon="2.229831">
        <ele>104.208267</ele>
        <time>2023-10-10T21:41:16.838Z</time>
      </trkpt>
      <trkpt lat="48.817897" lon="2.229879">
        <ele>104.628134</ele>
        <time>2023-10-10T21:41:19.897Z</time>
      </trkpt>
      <trkpt lat="48.817824" lon="2.229856">
        <ele>105.008439</ele>
        <time>2023-10-10T21:41:22.563Z</time>
      </trkpt>
      <trkpt lat="48.817649" lon="2.229685">
        <ele>106.069932</ele>
        <time>2023-10-10T21:41:29.863Z</time>
      </trkpt>
      <trkpt lat="48.817563" lon="2.229577">
        <ele>106.639176</ele>
        <time>2023-10-10T21:41:33.781Z</time>
      </trkpt>
      <trkpt lat="48.817495" lon="2.229476">
        <ele>107.124361</ele>
        <time>2023-10-10T21:41:37.006Z</time>
      </trkpt>
      <trkpt lat="48.817384" lon="2.229014">
        <ele>108.794947</ele>
        <time>2023-10-10T21:41:48.286Z</time>
      </trkpt>
      <trkpt lat="48.817251" lon="2.228634">
        <ele>110.334738</ele>
        <time>2023-10-10T21:41:59.035Z</time>
      </trkpt>
      <trkpt lat="48.816985" lon="2.227990">
        <ele>113.054820</ele>
        <time>2023-10-10T21:42:17.891Z</time>
      </trkpt>
      <trkpt lat="48.816856" lon="2.227684">
        <ele>114.354873</ele>
        <time>2023-10-10T21:42:27.024Z</time>
      </trkpt>
      <trkpt lat="48.816805" lon="2.227565">
        <ele>114.862906</ele>
        <time>2023-10-10T21:42:30.243Z</time>
      </trkpt>
      <trkpt lat="48.816759" lon="2.227456">
        <ele>115.326141</ele>
        <time>2023-10-10T21:42:33.314Z</time>
      </trkpt>
      <trkpt lat="48.816660" lon="2.227203">
        <ele>116.379174</ele>
        <time>2023-10-10T21:42:40.217Z</time>
      </trkpt>
      <trkpt lat="48.816627" lon="2.227112">
        <ele>116.750891</ele>
        <time>2023-10-10T21:42:42.536Z</time>
      </trkpt>
      <trkpt lat="48.816545" lon="2.227211">
        <ele>117.320119</ele>
        <time>2023-10-10T21:42:46.330Z</time>
      </trkpt>
      <trkpt lat="48.816454" lon="2.227270">
        <ele>117.857784</ele>
        <time>2023-10-10T21:42:49.922Z</time>
      </trkpt>
      <trkpt lat="48.816347" lon="2.227336">
        <ele>118.506787</ele>
        <time>2023-10-10T21:42:53.894Z</time>
      </trkpt>
      <trkpt lat="48.816088" lon="2.227496">
        <ele>120.172613</ele>
        <time>2023-10-10T21:43:03.902Z</time>
      </trkpt>
      <trkpt lat="48.816068" lon="2.227509">
        <ele>120.302223</ele>
        <time>2023-10-10T21:43:04.688Z</time>
      </trkpt>
      <trkpt lat="48.815650" lon="2.227768">
        <ele>122.991850</ele>
        <time>2023-10-10T21:43:21.893Z</time>
      </trkpt>
      <trkpt lat="48.815366" lon="2.227990">
        <ele>124.894829</ele>
        <time>2023-10-10T21:43:35.122Z</time>
      </trkpt>
      <trkpt lat="48.815272" lon="2.228061">
        <ele>125.520298</ele>
        <time>2023-10-10T21:43:39.591Z</time>
      </trkpt>
      <trkpt lat="48.813867" lon="2.229129">
        <ele>134.634892</ele>
        <time>2023-10-10T21:44:41.042Z</time>
      </trkpt>
      <trkpt lat="48.813857" lon="2.229138">
        <ele>134.701259</ele>
        <time>2023-10-10T21:44:41.508Z</time>
      </trkpt>
      <trkpt lat="48.812951" lon="2.229832">
        <ele>140.367022</ele>
        <time>2023-10-10T21:45:18.159Z</time>
      </trkpt>
      <trkpt lat="48.812779" lon="2.229900">
        <ele>141.277841</ele>
        <time>2023-10-10T21:45:24.242Z</time>
      </trkpt>
      <trkpt lat="48.812432" lon="2.230012">
        <ele>143.095814</ele>
        <time>2023-10-10T21:45:36.180Z</time>
      </trkpt>
      <trkpt lat="48.812113" lon="2.230094">
        <ele>144.753828</ele>
        <time>2023-10-10T21:45:46.906Z</time>
      </trkpt>
      <trkpt lat="48.811930" lon="2.230189">
        <ele>145.744922</ele>
        <time>2023-10-10T21:45:53.632Z</time>
      </trkpt>
      <trkpt lat="48.811856" lon="2.230229">
        <ele>146.147455</ele>
        <time>2023-10-10T21:45:56.233Z</time>
      </trkpt>
      <trkpt lat="48.811930" lon="2.230189">
        <ele>146.549987</ele>
        <time>2023-10-10T21:45:58.880Z</time>
      </trkpt>
      <trkpt lat="48.811850" lon="2.230096">
        <ele>147.066299</ele>
        <time>2023-10-10T21:46:02.644Z</time>
      </trkpt>
      <trkpt lat="48.810459" lon="2.230265">
        <ele>155.430903</ele>
        <time>2023-10-10T21:46:56.802Z</time>
      </trkpt>
      <trkpt lat="48.810348" lon="2.230233">
        <ele>156.132037</ele>
        <time>2023-10-10T21:47:01.665Z</time>
      </trkpt>
      <trkpt lat="48.810305" lon="2.230068">
        <ele>156.857233</ele>
        <time>2023-10-10T21:47:06.520Z</time>
      </trkpt>
      <trkpt lat="48.810215" lon="2.229188">
        <ele>160.410780</ele>
        <time>2023-10-10T21:47:31.079Z</time>
      </trkpt>
      <trkpt lat="48.810080" lon="2.227879">
        <ele>165.290696</ele>
        <time>2023-10-10T21:48:06.282Z</time>
      </trkpt>
      <trkpt lat="48.810069" lon="2.227761">
        <ele>165.729633</ele>
        <time>2023-10-10T21:48:09.260Z</time>
      </trkpt>
      <trkpt lat="48.810006" lon="2.227148">
        <ele>168.014694</ele>
        <time>2023-10-10T21:48:23.597Z</time>
      </trkpt>
      <trkpt lat="48.809909" lon="2.226155">
        <ele>170.488508</ele>
        <time>2023-10-10T21:48:43.931Z</time>
      </trkpt>
      <trkpt lat="48.809852" lon="2.225594">
        <ele>171.316573</ele>
        <time>2023-10-10T21:48:54.033Z</time>
      </trkpt>
      <trkpt lat="48.809813" lon="2.225414">
        <ele>171.593003</ele>
        <time>2023-10-10T21:48:57.050Z</time>
      </trkpt>
      <trkpt lat="48.809369" lon="2.224940">
        <ele>172.795266</ele>
        <time>2023-10-10T21:49:09.884Z</time>
      </trkpt>
      <trkpt lat="48.808227" lon="2.223867">
        <ele>172.400156</ele>
        <time>2023-10-10T21:49:28.275Z</time>
      </trkpt>
      <trkpt lat="48.808141" lon="2.223783">
        <ele>172.263140</ele>
        <time>2023-10-10T21:49:29.391Z</time>
      </trkpt>
      <trkpt lat="48.808227" lon="2.223867">
        <ele>172.126125</ele>
        <time>2023-10-10T21:49:30.503Z</time>
      </trkpt>
      <trkpt lat="48.808185" lon="2.223602">
        <ele>171.885601</ele>
        <time>2023-10-10T21:49:32.376Z</time>
      </trkpt>
      <trkpt lat="48.808185" lon="2.223346">
        <ele>171.659694</ele>
        <time>2023-10-10T21:49:34.131Z</time>
      </trkpt>
      <trkpt lat="48.808213" lon="2.223203">
        <ele>171.528045</ele>
        <time>2023-10-10T21:49:35.144Z</time>
      </trkpt>
      <trkpt lat="48.808376" lon="2.222846">
        <ele>171.019558</ele>
        <time>2023-10-10T21:49:38.105Z</time>
      </trkpt>
      <trkpt lat="48.808411" lon="2.222783">
        <ele>170.868053</ele>
        <time>2023-10-10T21:49:38.660Z</time>
      </trkpt>
      <trkpt lat="48.808438" lon="2.222595">
        <ele>170.514357</ele>
        <time>2023-10-10T21:49:39.967Z</time>
      </trkpt>
      <trkpt lat="48.808363" lon="2.221719">
        <ele>168.890574</ele>
        <time>2023-10-10T21:49:45.918Z</time>
      </trkpt>
      <trkpt lat="48.808348" lon="2.221418">
        <ele>168.335704</ele>
        <time>2023-10-10T21:49:47.925Z</time>
      </trkpt>
      <trkpt lat="48.808363" lon="2.221261">
        <ele>168.044090</ele>
        <time>2023-10-10T21:49:48.981Z</time>
      </trkpt>
      <trkpt lat="48.808550" lon="2.220124">
        <ele>166.076708</ele>
        <time>2023-10-10T21:49:57.074Z</time>
      </trkpt>
      <trkpt lat="48.808553" lon="2.220085">
        <ele>166.043037</ele>
        <time>2023-10-10T21:49:57.368Z</time>
      </trkpt>
      <trkpt lat="48.808534" lon="2.219735">
        <ele>165.741883</ele>
        <time>2023-10-10T21:49:59.890Z</time>
      </trkpt>
      <trkpt lat="48.808577" lon="2.219474">
        <ele>165.511171</ele>
        <time>2023-10-10T21:50:01.921Z</time>
      </trkpt>
      <trkpt lat="48.808627" lon="2.219207">
        <ele>165.273135</ele>
        <time>2023-10-10T21:50:03.976Z</time>
      </trkpt>
      <trkpt lat="48.808669" lon="2.218986">
        <ele>165.075888</ele>
        <time>2023-10-10T21:50:05.806Z</time>
      </trkpt>
      <trkpt lat="48.808693" lon="2.218865">
        <ele>164.967523</ele>
        <time>2023-10-10T21:50:06.841Z</time>
      </trkpt>
      <trkpt lat="48.808718" lon="2.218747">
        <ele>164.861228</ele>
        <time>2023-10-10T21:50:07.825Z</time>
      </trkpt>
      <trkpt lat="48.808851" lon="2.218079">
        <ele>164.262795</ele>
        <time>2023-10-10T21:50:13.752Z</time>
      </trkpt>
      <trkpt lat="48.808892" lon="2.217917">
        <ele>164.113971</ele>
        <time>2023-10-10T21:50:15.317Z</time>
      </trkpt>
      <trkpt lat="48.808975" lon="2.217675">
        <ele>163.898052</ele>
        <time>2023-10-10T21:50:17.707Z</time>
      </trkpt>
      <trkpt lat="48.809272" lon="2.217068">
        <ele>163.898052</ele>
        <time>2023-10-10T21:50:24.197Z</time>
      </trkpt>
      <trkpt lat="48.809410" lon="2.216789">
        <ele>163.898052</ele>
        <time>2023-10-10T21:50:27.319Z</time>
      </trkpt>
      <trkpt lat="48.809849" lon="2.215913">
        <ele>163.898052</ele>
        <time>2023-10-10T21:50:37.839Z</time>
      </trkpt>
      <trkpt lat="48.809885" lon="2.215843">
        <ele>163.898052</ele>
        <time>2023-10-10T21:50:38.687Z</time>
      </trkpt>
      <trkpt lat="48.809836" lon="2.215815">
        <ele>163.898052</ele>
        <time>2023-10-10T21:50:44.357Z</time>
      </trkpt>
      <trkpt lat="48.809790" lon="2.215886">
        <ele>163.898052</ele>
        <time>2023-10-10T21:50:51.766Z</time>
      </trkpt>
      <trkpt lat="48.809701" lon="2.215784">
        <ele>163.898052</ele>
        <time>2023-10-10T21:51:04.226Z</time>
      </trkpt>
    </trkseg>
  </trk>
</gpx>